Time;durP1;ratioP1;P1;durP2;ratioP2;P2;SDS_P1;SDS_P2;PMS_P1;PMS_P2;Temp;Humidity;BMP_temperature;BMP_pressure;BME280_temperature;BME280_humidity;BME280_pressure;Samples;Min_cycle;Max_cycle;Signal;HPM_P1;HPM_P2
2021/05/03 00:02:20;;;;;;;3.10;2.07;;;;;;;3.98;77.98;101185.52;128412;1101;62474;-80
2021/05/03 00:04:47;;;;;;;4.13;2.07;;;;;;;3.99;77.79;101189.80;128341;1101;62374;-80
2021/05/03 00:07:14;;;;;;;5.83;1.47;;;;;;;4.00;76.96;101187.06;128419;1101;62394;-80
2021/05/03 00:09:42;;;;;;;3.10;1.43;;;;;;;4.01;77.44;101188.72;128352;1101;62513;-80
2021/05/03 00:12:09;;;;;;;3.07;1.43;;;;;;;4.00;77.15;101189.69;128456;1101;62145;-80
2021/05/03 00:14:36;;;;;;;2.87;1.63;;;;;;;4.04;76.63;101191.13;128463;1101;62215;-80
2021/05/03 00:17:03;;;;;;;3.30;1.70;;;;;;;4.07;76.87;101198.75;128378;1101;62138;-80
2021/05/03 00:19:29;;;;;;;3.83;1.87;;;;;;;4.07;77.02;101190.88;128428;1101;62244;-80
2021/05/03 00:21:56;;;;;;;3.03;1.33;;;;;;;4.08;76.73;101186.48;128127;1102;62466;-80
2021/05/03 00:24:23;;;;;;;3.20;2.03;;;;;;;4.11;76.53;101186.22;128364;1101;62292;-80
2021/05/03 00:26:49;;;;;;;4.27;1.43;;;;;;;4.13;76.24;101186.11;128293;1101;62916;-80
2021/05/03 00:29:16;;;;;;;5.83;1.70;;;;;;;4.13;75.97;101183.48;128310;1101;62221;-80
2021/05/03 00:31:42;;;;;;;5.80;1.43;;;;;;;4.13;76.16;101188.73;128306;1101;62178;-81
2021/05/03 00:34:10;;;;;;;3.13;2.00;;;;;;;4.13;75.65;101193.98;128296;1101;63259;-81
2021/05/03 00:36:36;;;;;;;3.27;1.83;;;;;;;4.13;75.85;101189.56;128320;1101;63045;-81
2021/05/03 00:39:03;;;;;;;4.83;2.07;;;;;;;4.14;75.48;101191.22;128380;1101;62178;-80
2021/05/03 00:41:30;;;;;;;1.93;1.07;;;;;;;4.16;75.86;101194.56;128385;1101;62242;-80
2021/05/03 00:43:57;;;;;;;2.77;1.63;;;;;;;4.13;75.43;101194.81;128446;1101;62136;-80
2021/05/03 00:46:23;;;;;;;5.43;2.20;;;;;;;4.12;75.84;101202.80;128391;1101;62192;-80
2021/05/03 00:48:50;;;;;;;4.93;1.80;;;;;;;4.08;74.98;101192.55;128426;1101;62151;-80
2021/05/03 00:51:16;;;;;;;3.10;1.70;;;;;;;4.06;75.28;101193.64;128436;1101;62264;-80
2021/05/03 00:53:43;;;;;;;5.10;2.07;;;;;;;4.03;75.57;101192.06;128393;1101;62309;-80
2021/05/03 00:56:10;;;;;;;3.10;1.93;;;;;;;4.01;75.84;101199.22;128420;1101;62179;-80
2021/05/03 00:58:37;;;;;;;3.47;1.73;;;;;;;3.99;75.38;101193.26;128392;1101;62112;-80
2021/05/03 01:01:04;;;;;;;2.03;1.20;;;;;;;3.93;76.06;101199.02;128395;1101;62189;-79
2021/05/03 01:03:31;;;;;;;3.87;2.03;;;;;;;3.92;76.10;101201.75;128448;1101;62549;-79
2021/05/03 01:05:58;;;;;;;3.30;1.70;;;;;;;3.84;75.87;101205.78;128133;1101;62675;-79
2021/05/03 01:08:25;;;;;;;4.90;1.90;;;;;;;3.82;76.44;101206.86;128403;1101;62480;-80
2021/05/03 01:10:51;;;;;;;3.03;1.33;;;;;;;3.78;76.42;101200.17;128406;1101;62374;-79
2021/05/03 01:13:18;;;;;;;5.20;2.50;;;;;;;3.78;76.56;101203.66;128418;1101;62198;-80
2021/05/03 01:15:45;;;;;;;2.57;1.20;;;;;;;3.73;76.55;101208.41;128425;1101;62332;-80
2021/05/03 01:18:11;;;;;;;6.17;1.73;;;;;;;3.67;76.71;101203.63;128429;1101;62156;-80
2021/05/03 01:20:39;;;;;;;1.83;1.07;;;;;;;3.61;77.36;101207.58;128437;1101;62644;-80
2021/05/03 01:23:07;;;;;;;3.13;1.97;;;;;;;3.57;77.19;101211.38;128396;1101;62164;-80
2021/05/03 01:25:39;;;;;;;3.00;0.90;;;;;;;3.55;77.50;101205.41;128437;1101;62995;-80
2021/05/03 01:28:07;;;;;;;2.53;1.60;;;;;;;3.50;77.55;101207.53;128434;1101;62632;-80
2021/05/03 01:30:42;;;;;;;4.33;1.60;;;;;;;3.45;77.81;101215.76;128421;1100;62521;-79
2021/05/03 01:33:10;;;;;;;4.80;1.80;;;;;;;3.40;77.91;101214.42;128405;1101;62189;-79
2021/05/03 01:35:39;;;;;;;2.97;1.23;;;;;;;3.36;78.31;101211.22;128397;1101;62279;-80
2021/05/03 01:38:07;;;;;;;3.97;1.43;;;;;;;3.35;78.20;101208.70;128156;1103;62489;-79
2021/05/03 01:40:37;;;;;;;3.60;2.13;;;;;;;3.33;78.15;101215.84;128331;1101;62313;-80
2021/05/03 01:43:21;;;;;;;2.97;1.77;;;;;;;3.28;78.38;101207.50;128083;1102;62388;-79
2021/05/03 01:45:51;;;;;;;4.07;1.47;;;;;;;3.23;78.97;101211.30;128422;1101;62167;-79
2021/05/03 01:48:23;;;;;;;5.57;2.00;;;;;;;3.19;78.77;101211.65;128433;1101;62987;-79
2021/05/03 01:50:52;;;;;;;2.63;1.60;;;;;;;3.15;78.88;101210.20;128431;1101;62092;-79
2021/05/03 01:53:19;;;;;;;4.80;2.07;;;;;;;3.14;79.50;101211.14;128440;1101;63282;-80
2021/05/03 01:55:49;;;;;;;2.30;0.93;;;;;;;3.13;79.31;101214.72;128400;1101;63090;-79
2021/05/03 01:58:16;;;;;;;7.27;2.07;;;;;;;3.11;79.58;101211.38;127794;1101;64238;-78
2021/05/03 02:00:44;;;;;;;2.63;1.50;;;;;;;3.08;79.47;101222.08;127709;1096;64413;-79
2021/05/03 02:03:18;;;;;;;3.67;1.93;;;;;;;3.03;79.76;101215.38;127438;1101;64339;-80
2021/05/03 02:05:45;;;;;;;2.88;1.70;;;;;;;3.02;80.13;101223.38;127645;1101;64317;-79
2021/05/03 02:08:12;;;;;;;3.40;1.97;;;;;;;2.99;79.97;101223.59;127588;1101;64192;-79
2021/05/03 02:10:39;;;;;;;4.17;1.87;;;;;;;2.94;79.99;101220.48;128118;1101;64179;-81
2021/05/03 02:13:06;;;;;;;4.47;1.93;;;;;;;2.91;80.42;101216.31;128014;1101;62496;-79
2021/05/03 02:15:34;;;;;;;5.13;1.87;;;;;;;2.88;80.18;101207.83;128009;1101;63441;-79
2021/05/03 02:18:01;;;;;;;4.47;1.60;;;;;;;2.83;80.54;101214.23;128015;1101;63113;-79
2021/05/03 02:20:27;;;;;;;3.73;2.37;;;;;;;2.81;80.34;101223.16;127891;1101;62504;-79
2021/05/03 02:22:54;;;;;;;4.07;1.90;;;;;;;2.76;80.47;101220.88;128223;1101;62646;-79
2021/05/03 02:25:21;;;;;;;9.10;2.37;;;;;;;2.71;81.47;101222.98;128351;1101;62082;-79
2021/05/03 02:27:48;;;;;;;8.73;2.90;;;;;;;2.68;81.53;101220.59;128304;1101;63325;-79
2021/05/03 02:30:16;;;;;;;4.63;1.50;;;;;;;2.68;81.44;101225.84;128343;1101;62288;-79
2021/05/03 02:32:44;;;;;;;6.47;2.00;;;;;;;2.67;81.21;101229.39;128380;1101;62342;-80
2021/05/03 02:35:16;;;;;;;4.83;1.50;;;;;;;2.66;81.48;101227.73;128370;1101;62338;-80
2021/05/03 02:37:50;;;;;;;4.97;2.10;;;;;;;2.62;81.46;101231.52;128477;1101;62270;-80
2021/05/03 02:40:18;;;;;;;5.57;2.40;;;;;;;2.59;81.71;101231.72;128422;1101;62741;-79
2021/05/03 02:42:46;;;;;;;7.93;2.90;;;;;;;2.55;82.42;101235.50;128305;1101;62768;-79
2021/05/03 02:45:13;;;;;;;3.73;2.30;;;;;;;2.54;81.45;101239.08;128407;1101;62194;-80
2021/05/03 02:47:42;;;;;;;4.40;2.70;;;;;;;2.52;81.60;101238.34;128343;1101;62271;-80
2021/05/03 02:50:10;;;;;;;3.80;2.30;;;;;;;2.49;82.21;101236.80;128327;1102;62225;-79
2021/05/03 02:52:37;;;;;;;3.47;2.23;;;;;;;2.47;82.03;101237.85;128403;1101;62040;-79
2021/05/03 02:55:04;;;;;;;6.13;2.13;;;;;;;2.44;82.59;101237.13;128336;1101;62486;-79
2021/05/03 02:57:31;;;;;;;2.50;1.27;;;;;;;2.41;81.99;101239.94;128369;1101;62370;-79
2021/05/03 02:59:58;;;;;;;3.03;1.73;;;;;;;2.40;82.25;101237.42;128349;1101;62192;-79
2021/05/03 03:02:24;;;;;;;4.87;2.67;;;;;;;2.41;82.26;101242.56;128397;1101;62206;-79
2021/05/03 03:04:51;;;;;;;3.43;2.10;;;;;;;2.41;81.78;101239.11;128382;1101;62585;-80
2021/05/03 03:07:17;;;;;;;9.20;2.20;;;;;;;2.39;82.52;101233.15;128372;1101;62069;-79
2021/05/03 03:09:44;;;;;;;4.40;1.95;;;;;;;2.38;82.49;101237.55;128343;1101;62656;-79
2021/05/03 03:12:11;;;;;;;4.80;2.50;;;;;;;2.36;82.26;101241.20;128338;1101;62301;-79
2021/05/03 03:14:38;;;;;;;3.37;2.33;;;;;;;2.32;82.44;101243.22;128383;1102;62241;-79
2021/05/03 03:17:05;;;;;;;3.47;2.10;;;;;;;2.30;82.45;101241.66;128141;1101;61994;-79
2021/05/03 03:19:32;;;;;;;4.43;2.13;;;;;;;2.25;82.59;101247.20;128388;1101;62024;-78
2021/05/03 03:21:59;;;;;;;4.60;2.20;;;;;;;2.23;81.80;101241.23;128288;1101;62426;-79
2021/05/03 03:24:25;;;;;;;5.17;2.77;;;;;;;2.20;82.64;101247.52;128375;1101;64201;-79
2021/05/03 03:26:52;;;;;;;4.07;2.13;;;;;;;2.19;82.47;101245.86;128109;1101;62787;-78
2021/05/03 03:29:18;;;;;;;6.17;2.87;;;;;;;2.17;82.73;101247.75;128399;1101;62101;-79
2021/05/03 03:31:45;;;;;;;4.07;2.10;;;;;;;2.14;82.38;101244.50;128365;1101;62137;-78
2021/05/03 03:34:12;;;;;;;5.93;2.60;;;;;;;2.10;82.55;101250.89;128088;1101;62171;-79
2021/05/03 03:36:39;;;;;;;6.00;2.40;;;;;;;2.06;83.08;101241.57;128411;1101;62377;-78
2021/05/03 03:39:06;;;;;;;3.27;2.13;;;;;;;2.01;83.13;101247.95;128398;1101;62405;-78
2021/05/03 03:41:34;;;;;;;5.70;2.43;;;;;;;1.98;83.67;101252.59;128442;1101;62131;-79
2021/05/03 03:44:04;;;;;;;6.73;2.87;;;;;;;1.95;83.20;101248.38;128426;1101;62848;-78
2021/05/03 03:46:31;;;;;;;4.77;2.80;;;;;;;1.93;83.62;101245.03;128370;1101;63197;-79
2021/05/03 03:48:58;;;;;;;4.53;2.77;;;;;;;1.91;83.61;101246.91;128429;1101;62130;-79
2021/05/03 03:51:25;;;;;;;5.53;2.73;;;;;;;1.89;83.54;101246.21;128382;1101;61981;-79
2021/05/03 03:53:53;;;;;;;4.60;2.13;;;;;;;1.89;83.88;101254.06;128402;1101;62365;-79
2021/05/03 03:56:22;;;;;;;8.43;2.60;;;;;;;1.90;84.00;101249.66;128435;1101;63138;-79
2021/05/03 03:58:49;;;;;;;3.97;2.40;;;;;;;1.90;83.96;101249.66;128397;1101;62115;-78
2021/05/03 04:01:16;;;;;;;7.50;2.77;;;;;;;1.89;84.32;101248.83;128189;1102;62222;-78
2021/05/03 04:03:55;;;;;;;6.50;2.93;;;;;;;1.88;83.67;101252.37;128371;1101;62352;-78
2021/05/03 04:06:48;;;;;;;7.73;3.13;;;;;;;1.91;83.91;101253.93;128184;1102;62153;-78
2021/05/03 04:09:37;;;;;;;3.50;1.80;;;;;;;1.92;83.88;101255.63;127665;1101;64053;-79
2021/05/03 04:25:41;;;;;;;;;;;;;;;2.10;84.37;101267.42;128405;1101;62127;-78
2021/05/03 04:28:09;;;;;;;4.50;2.63;;;;;;;2.13;84.47;101272.46;128388;1101;61987;-78
2021/05/03 04:30:36;;;;;;;2.77;1.50;;;;;;;2.17;84.36;101273.92;128462;1101;62271;-78
2021/05/03 04:33:03;;;;;;;7.77;3.47;;;;;;;2.22;84.19;101271.81;128392;1101;62117;-79
2021/05/03 04:35:30;;;;;;;6.17;2.10;;;;;;;2.29;83.81;101271.39;128435;1101;62310;-80
2021/05/03 04:37:57;;;;;;;4.87;2.60;;;;;;;2.34;84.09;101272.75;128366;1101;64899;-80
2021/05/03 04:40:24;;;;;;;2.63;1.33;;;;;;;2.40;84.13;101271.47;128391;1101;62133;-79
2021/05/03 04:42:54;;;;;;;4.40;1.80;;;;;;;2.47;83.71;101274.52;128416;1101;62812;-79
2021/05/03 04:45:21;;;;;;;5.53;2.37;;;;;;;2.53;83.14;101274.05;128452;1101;62450;-79
2021/05/03 04:47:47;;;;;;;2.63;1.33;;;;;;;2.61;83.28;101277.83;128294;1101;62148;-79
2021/05/03 04:50:14;;;;;;;5.37;2.93;;;;;;;2.72;83.14;101278.83;128284;1101;62533;-79
2021/05/03 04:52:41;;;;;;;3.97;2.17;;;;;;;2.82;82.70;101283.30;128409;1101;63378;-80
2021/05/03 04:55:08;;;;;;;4.77;2.37;;;;;;;2.95;82.24;101292.90;128454;1101;62269;-80
2021/05/03 04:57:35;;;;;;;5.67;2.60;;;;;;;3.05;81.73;101291.29;128175;1101;62285;-80
2021/05/03 05:00:04;;;;;;;4.73;1.97;;;;;;;3.13;81.59;101294.20;128362;1101;62917;-80
2021/05/03 05:02:30;;;;;;;7.03;2.80;;;;;;;3.21;80.02;101293.62;128173;1101;62871;-80
2021/05/03 05:04:59;;;;;;;4.23;2.10;;;;;;;3.31;79.95;101291.16;128383;1101;62538;-80
2021/05/03 05:07:27;;;;;;;4.03;2.10;;;;;;;3.40;79.63;101300.97;128486;1101;63172;-79
2021/05/03 05:09:55;;;;;;;9.17;2.70;;;;;;;3.51;79.66;101292.30;128356;1101;62625;-80
2021/05/03 05:12:22;;;;;;;4.43;2.27;;;;;;;3.61;79.21;101288.91;128268;1101;62850;-80
2021/05/03 05:14:48;;;;;;;16.40;3.13;;;;;;;3.71;78.82;101290.83;128418;1101;62262;-80
2021/05/03 05:17:15;;;;;;;11.57;4.00;;;;;;;3.79;78.39;101298.95;128399;1101;62267;-79
2021/05/03 05:19:43;;;;;;;8.53;2.67;;;;;;;3.86;77.86;101297.53;128438;1101;62870;-79
2021/05/03 05:22:11;;;;;;;13.30;3.10;;;;;;;3.96;77.44;101297.68;128419;1101;62319;-78
2021/05/03 05:24:38;;;;;;;7.80;1.97;;;;;;;4.06;77.23;101299.48;127580;1101;64291;-80
2021/05/03 05:27:05;;;;;;;7.97;2.90;;;;;;;4.13;76.74;101294.59;127315;1101;64217;-74
2021/05/03 05:29:33;;;;;;;6.63;2.93;;;;;;;4.21;76.63;101292.22;127110;1101;64353;-73
2021/05/03 05:31:59;;;;;;;7.93;2.60;;;;;;;4.28;76.85;101301.28;127643;1101;63075;-73
2021/05/03 05:34:29;;;;;;;6.90;3.23;;;;;;;4.33;76.81;101293.03;128317;1101;62316;-74
2021/05/03 05:36:56;;;;;;;2.30;1.40;;;;;;;4.38;76.23;101306.66;128352;1101;62780;-74
2021/05/03 05:39:23;;;;;;;4.30;2.10;;;;;;;4.44;76.06;101307.95;128362;1101;62348;-74
2021/05/03 05:41:49;;;;;;;4.70;2.70;;;;;;;4.50;76.41;101296.97;128366;1101;62845;-74
2021/05/03 05:44:16;;;;;;;5.23;2.53;;;;;;;4.52;75.48;101310.82;128324;1101;62795;-74
2021/05/03 05:46:44;;;;;;;7.60;2.60;;;;;;;4.56;75.86;101296.48;128123;1102;62291;-74
2021/05/03 05:49:11;;;;;;;5.57;2.47;;;;;;;4.65;75.66;101294.92;128399;1101;62217;-74
2021/05/03 05:51:42;;;;;;;6.50;2.77;;;;;;;4.75;74.55;101293.23;128371;1101;62795;-75
2021/05/03 05:54:08;;;;;;;6.07;2.27;;;;;;;4.89;74.61;101302.67;128374;1101;61992;-75
2021/05/03 05:56:35;;;;;;;3.43;2.50;;;;;;;5.06;74.48;101299.51;128365;1101;62278;-75
2021/05/03 05:59:02;;;;;;;5.70;2.50;;;;;;;5.24;73.11;101291.91;128364;1101;62254;-75
2021/05/03 06:01:29;;;;;;;5.93;2.30;;;;;;;5.41;73.62;101298.41;128367;1101;62013;-75
2021/05/03 06:03:56;;;;;;;4.17;2.37;;;;;;;5.50;72.57;101295.04;128362;1101;63077;-72
2021/05/03 06:06:23;;;;;;;5.93;2.50;;;;;;;5.57;72.08;101297.99;128383;1101;63553;-72
2021/05/03 06:08:49;;;;;;;8.70;3.20;;;;;;;5.69;71.99;101294.31;128381;1101;62301;-72
2021/05/03 06:11:16;;;;;;;12.13;4.27;;;;;;;5.77;71.19;101298.13;128394;1101;62300;-72
2021/05/03 06:13:43;;;;;;;9.60;3.00;;;;;;;5.83;71.79;101298.44;128345;1101;62273;-72
2021/05/03 06:16:09;;;;;;;10.70;3.63;;;;;;;6.01;70.59;101300.50;128372;1101;62527;-72
2021/05/03 06:18:36;;;;;;;13.13;3.60;;;;;;;6.14;70.96;101293.22;128366;1101;62385;-73
2021/05/03 06:21:03;;;;;;;6.30;3.40;;;;;;;6.26;70.55;101283.44;128410;1101;62401;-73
2021/05/03 06:23:30;;;;;;;12.13;4.23;;;;;;;6.32;70.43;101288.19;128378;1101;62032;-73
2021/05/03 06:25:56;;;;;;;5.63;2.20;;;;;;;6.33;69.65;101295.11;128372;1101;62729;-73
2021/05/03 06:28:23;;;;;;;5.47;2.10;;;;;;;6.38;70.07;101292.92;128306;1101;62237;-73
2021/05/03 06:30:57;;;;;;;6.60;2.97;;;;;;;6.47;69.77;101289.48;128375;1101;62271;-73
2021/05/03 06:33:25;;;;;;;6.78;3.15;;;;;;;6.67;69.16;101289.54;128368;1101;62707;-73
2021/05/03 06:35:53;;;;;;;4.33;2.67;;;;;;;6.79;68.93;101285.00;128399;1101;62572;-74
2021/05/03 06:38:22;;;;;;;8.90;4.20;;;;;;;6.85;69.38;101284.45;128382;1101;62722;-74
2021/05/03 06:40:50;;;;;;;5.30;3.43;;;;;;;7.00;69.25;101293.64;128366;1101;62159;-74
2021/05/03 06:43:17;;;;;;;5.63;2.70;;;;;;;7.04;67.90;101288.94;128417;1101;62316;-73
2021/05/03 06:45:43;;;;;;;3.20;2.17;;;;;;;7.07;68.26;101300.02;128392;1101;62666;-72
2021/05/03 06:48:10;;;;;;;4.20;2.63;;;;;;;7.11;67.05;101296.14;128396;1101;62427;-72
2021/05/03 06:50:37;;;;;;;3.67;2.40;;;;;;;7.12;66.83;101312.83;127387;1101;64276;-73
2021/05/03 06:53:04;;;;;;;4.93;2.60;;;;;;;7.13;67.08;101306.56;128352;1101;62316;-73
2021/05/03 06:55:31;;;;;;;4.93;2.63;;;;;;;7.19;66.05;101306.02;128389;1101;62211;-73
2021/05/03 06:58:00;;;;;;;4.00;2.40;;;;;;;7.32;65.80;101303.94;128366;1101;62221;-73
2021/05/03 07:00:27;;;;;;;3.07;2.10;;;;;;;7.53;65.07;101311.71;128409;1101;62906;-74
2021/05/03 07:02:53;;;;;;;3.27;1.90;;;;;;;7.64;64.24;101302.81;128331;1101;62209;-74
2021/05/03 07:05:20;;;;;;;3.67;2.00;;;;;;;7.74;64.71;101300.99;127951;1101;63612;-74
2021/05/03 07:07:47;;;;;;;5.37;2.83;;;;;;;7.76;63.72;101306.97;128401;1101;62294;-74
2021/05/03 07:10:14;;;;;;;4.97;3.37;;;;;;;7.75;63.90;101301.81;128377;1101;62336;-74
2021/05/03 07:12:44;;;;;;;5.10;2.73;;;;;;;7.74;64.78;101306.28;128360;1101;62574;-71
2021/05/03 07:15:12;;;;;;;8.40;3.77;;;;;;;7.61;64.13;101303.10;128393;1101;62495;-72
2021/05/03 07:17:40;;;;;;;2.23;1.60;;;;;;;7.52;65.36;101320.63;128303;1101;62538;-73
2021/05/03 07:20:08;;;;;;;3.00;1.90;;;;;;;7.43;66.16;101305.59;128452;1101;62024;-72
2021/05/03 07:22:36;;;;;;;4.17;1.97;;;;;;;7.35;66.40;101322.15;128280;1101;62287;-75
2021/05/03 07:25:07;;;;;;;3.43;1.57;;;;;;;7.22;67.67;101321.56;128436;1101;62069;-73
2021/05/03 07:27:35;;;;;;;5.97;1.90;;;;;;;7.05;68.15;101333.62;128257;1101;62772;-73
2021/05/03 07:30:05;;;;;;;6.07;1.63;;;;;;;6.96;69.55;101323.06;128427;1101;62156;-73
2021/05/03 07:32:32;;;;;;;2.97;1.23;;;;;;;6.76;69.81;101325.66;128194;1101;62506;-73
2021/05/03 07:34:59;;;;;;;2.63;1.40;;;;;;;6.61;70.02;101326.98;128442;1101;62183;-73
2021/05/03 07:37:26;;;;;;;2.53;1.40;;;;;;;6.43;69.66;101322.34;128486;1101;62017;-73
2021/05/03 07:39:52;;;;;;;1.70;1.00;;;;;;;6.25;72.11;101318.67;128397;1101;62020;-74
2021/05/03 07:42:19;;;;;;;4.03;1.50;;;;;;;6.18;72.15;101330.68;128438;1101;62119;-73
2021/05/03 07:45:06;;;;;;;1.37;0.60;;;;;;;6.11;73.15;101331.20;128450;1101;62171;-74
2021/05/03 07:47:33;;;;;;;3.33;1.83;;;;;;;6.17;74.30;101331.66;128431;1101;62850;-75
2021/05/03 07:50:00;;;;;;;2.53;1.30;;;;;;;6.18;73.78;101322.78;128326;1101;62416;-74
2021/05/03 07:52:31;;;;;;;3.50;1.37;;;;;;;6.23;74.05;101331.14;128416;1101;62502;-73
2021/05/03 07:54:59;;;;;;;3.63;1.93;;;;;;;6.23;73.51;101326.70;128403;1101;62494;-74
2021/05/03 07:57:27;;;;;;;2.70;1.47;;;;;;;6.16;74.32;101319.44;128383;1101;62259;-75
2021/05/03 07:59:54;;;;;;;7.47;2.80;;;;;;;6.07;73.28;101299.98;128333;1101;62107;-75
2021/05/03 08:02:22;;;;;;;3.63;2.57;;;;;;;6.04;73.11;101316.89;128374;1101;63508;-74
2021/05/03 08:04:52;;;;;;;3.30;2.30;;;;;;;5.99;72.61;101320.87;128303;1101;63065;-73
2021/05/03 08:07:19;;;;;;;8.03;2.57;;;;;;;5.98;74.26;101319.22;128350;1101;62269;-73
2021/05/03 08:09:46;;;;;;;1.70;0.80;;;;;;;5.93;74.34;101330.11;128465;1101;62058;-73
2021/05/03 08:12:13;;;;;;;3.43;1.80;;;;;;;5.98;74.06;101321.84;128305;1101;62269;-73
2021/05/03 08:14:42;;;;;;;3.40;2.10;;;;;;;6.06;75.35;101330.77;128734;1101;62031;-73
2021/05/03 08:17:12;;;;;;;5.27;2.10;;;;;;;6.16;73.59;101319.44;128452;1101;62868;-73
2021/05/03 08:19:39;;;;;;;2.70;1.80;;;;;;;6.29;73.25;101307.73;128174;1101;63057;-73
2021/05/03 08:22:06;;;;;;;2.57;1.43;;;;;;;6.39;71.33;101313.02;128370;1101;62689;-75
2021/05/03 08:24:35;;;;;;;2.70;1.57;;;;;;;6.50;72.70;101306.83;128314;1101;62299;-74
2021/05/03 08:27:06;;;;;;;2.93;1.90;;;;;;;6.65;72.46;101309.92;128390;1101;62357;-72
2021/05/03 08:29:35;;;;;;;3.83;1.50;;;;;;;6.70;71.79;101300.66;128416;1101;62250;-72
2021/05/03 08:32:04;;;;;;;2.77;1.40;;;;;;;6.73;69.62;101308.28;128413;1101;62216;-71
2021/05/03 08:34:31;;;;;;;2.30;1.23;;;;;;;6.80;70.12;101298.05;128403;1101;62527;-74
2021/05/03 08:36:58;;;;;;;3.33;1.40;;;;;;;6.97;69.08;101298.34;128441;1101;61986;-76
2021/05/03 08:39:26;;;;;;;2.50;1.27;;;;;;;7.23;68.60;101296.03;128460;1101;62478;-75
2021/05/03 08:41:59;;;;;;;4.33;1.80;;;;;;;7.48;67.73;101291.98;128447;1101;62273;-75
2021/05/03 08:44:28;;;;;;;3.50;1.63;;;;;;;7.58;66.49;101286.70;128441;1101;62116;-75
2021/05/03 08:46:56;;;;;;;3.15;1.90;;;;;;;7.62;66.19;101288.09;128456;1101;62110;-75
2021/05/03 08:52:25;;;;;;;4.90;1.80;;;;;;;7.75;65.19;101285.97;128394;1101;63965;-73
2021/05/03 08:54:52;;;;;;;3.20;1.53;;;;;;;7.97;64.90;101287.47;128326;1101;62185;-73
2021/05/03 08:57:19;;;;;;;3.90;1.87;;;;;;;8.06;64.61;101276.03;128412;1096;62313;-73
2021/05/03 08:59:46;;;;;;;3.93;2.20;;;;;;;8.21;64.41;101267.64;128372;1101;62161;-73
2021/05/03 09:02:15;;;;;;;5.93;2.43;;;;;;;8.30;64.18;101274.69;128361;1101;62483;-73
2021/05/03 09:04:44;;;;;;;6.07;2.70;;;;;;;8.31;63.59;101258.69;128284;1101;62355;-72
2021/05/03 09:07:13;;;;;;;4.23;2.17;;;;;;;8.43;63.25;101261.98;128304;1101;63164;-74
2021/05/03 09:09:44;;;;;;;4.73;2.20;;;;;;;8.57;61.74;101263.32;128356;1096;62316;-73
2021/05/03 09:12:16;;;;;;;4.93;2.50;;;;;;;8.84;61.45;101265.11;128378;1101;62175;-74
2021/05/03 09:14:54;;;;;;;12.77;6.97;;;;;;;9.08;61.21;101253.92;128425;1101;61927;-72
2021/05/03 09:17:43;;;;;;;2.63;1.83;;;;;;;9.32;60.18;101263.89;128453;1101;62118;-70
2021/05/03 09:20:14;;;;;;;3.63;2.30;;;;;;;9.55;60.37;101248.34;128455;1101;63645;-70
2021/05/03 09:22:54;;;;;;;7.40;2.20;;;;;;;9.75;58.91;101241.05;128410;1101;62356;-71
2021/05/03 09:25:36;;;;;;;6.30;3.70;;;;;;;9.95;58.01;101235.53;128422;1101;62163;-72
2021/05/03 09:28:09;;;;;;;4.40;2.40;;;;;;;9.98;57.85;101233.38;128452;1101;62335;-72
2021/05/03 09:30:45;;;;;;;21.17;13.00;;;;;;;10.16;58.60;101238.61;128428;1101;62118;-72
2021/05/03 09:33:29;;;;;;;10.53;6.57;;;;;;;10.18;56.18;101252.54;128438;1101;63766;-72
2021/05/03 09:35:59;;;;;;;13.10;9.50;;;;;;;10.27;56.66;101226.06;128397;1101;62046;-72
2021/05/03 09:38:27;;;;;;;11.27;5.33;;;;;;;10.43;54.87;101218.17;128443;1101;62165;-72
2021/05/03 09:41:13;;;;;;;6.83;4.40;;;;;;;10.44;54.19;101214.55;128412;1101;63825;-73
2021/05/03 09:43:41;;;;;;;9.83;6.37;;;;;;;10.54;54.43;101212.59;128476;1101;62091;-73
2021/05/03 09:46:25;;;;;;;17.70;12.53;;;;;;;10.65;54.53;101206.15;128410;1101;62914;-73
2021/05/03 09:48:56;;;;;;;3.70;2.30;;;;;;;10.86;53.91;101200.38;128443;1101;62298;-73
2021/05/03 09:51:34;;;;;;;5.00;2.33;;;;;;;10.95;54.16;101202.04;128423;1101;62065;-73
2021/05/03 09:54:22;;;;;;;3.90;2.30;;;;;;;11.00;53.25;101206.84;128377;1101;64189;-72
2021/05/03 09:57:06;;;;;;;9.10;4.67;;;;;;;10.99;50.68;101194.58;128434;1101;62264;-73
2021/05/03 09:59:52;;;;;;;3.40;2.00;;;;;;;10.93;52.33;101201.38;128386;1101;62892;-73
2021/05/03 10:02:25;;;;;;;4.60;2.33;;;;;;;10.99;51.61;101191.92;128257;1101;62261;-73
2021/05/03 10:04:58;;;;;;;3.57;2.03;;;;;;;11.14;50.06;101186.78;128416;1101;62531;-74
2021/05/03 10:07:27;;;;;;;8.50;3.27;;;;;;;11.43;49.50;101181.78;128482;1101;62187;-72
2021/05/03 10:10:06;;;;;;;4.03;2.80;;;;;;;11.67;47.99;101182.72;128359;1101;62015;-71
2021/05/03 10:12:33;;;;;;;4.67;2.87;;;;;;;11.70;44.32;101177.05;128405;1101;62542;-71
2021/05/03 10:15:04;;;;;;;6.43;3.20;;;;;;;11.64;44.19;101185.70;128515;1101;62071;-72
2021/05/03 10:17:31;;;;;;;5.07;2.57;;;;;;;11.93;45.96;101171.05;128448;1101;62262;-72
2021/05/03 10:20:00;;;;;;;3.10;2.00;;;;;;;12.02;44.32;101175.31;128482;1101;63480;-72
2021/05/03 10:22:29;;;;;;;3.67;2.57;;;;;;;12.13;42.66;101171.44;128482;1101;62080;-72
2021/05/03 10:25:09;;;;;;;3.03;1.87;;;;;;;12.09;44.20;101152.37;128476;1101;62271;-72
2021/05/03 10:27:42;;;;;;;6.43;4.83;;;;;;;11.99;45.16;101159.72;128401;1101;62449;-72
2021/05/03 10:30:19;;;;;;;14.53;9.37;;;;;;;11.89;44.77;101180.36;128427;1101;62039;-72
2021/05/03 10:33:02;;;;;;;6.53;4.47;;;;;;;11.87;44.68;101163.72;128419;1101;62497;-72
2021/05/03 10:35:37;;;;;;;5.83;3.53;;;;;;;11.86;44.25;101170.02;128224;1101;62299;-72
2021/05/03 10:38:04;;;;;;;;;;;;;;;11.78;43.60;101170.89;128440;1101;62824;-74
2021/05/03 10:40:33;;;;;;;4.87;2.60;;;;;;;11.73;45.40;101160.78;128403;1101;62197;-74
2021/05/03 10:43:04;;;;;;;5.50;2.60;;;;;;;11.80;45.59;101150.29;128365;1101;62060;-73
2021/05/03 10:49:03;;;;;;;7.85;3.40;;;;;;;12.00;43.91;101161.36;128446;1101;61674;-74
2021/05/03 10:52:14;;;;;;;6.03;3.63;;;;;;;12.06;42.42;101149.22;128427;1101;62909;-74
2021/05/03 10:54:25;;;;;;;6.00;3.93;;;;;;;12.11;43.67;101152.17;128369;1101;63146;-74
2021/05/03 10:56:53;;;;;;;5.60;4.00;;;;;;;12.10;43.83;101151.34;128448;1101;62268;-74
2021/05/03 10:59:20;;;;;;;5.53;3.53;;;;;;;12.06;42.98;101160.67;128442;1101;62486;-73
2021/05/03 11:01:55;;;;;;;5.53;3.40;;;;;;;12.17;44.45;101144.32;128456;1101;62209;-74
2021/05/03 11:04:24;;;;;;;5.70;3.40;;;;;;;12.12;43.70;101144.03;128457;1101;62821;-73
2021/05/03 11:06:50;;;;;;;4.07;3.03;;;;;;;12.01;43.53;101129.30;128376;1101;62508;-74
2021/05/03 11:09:35;;;;;;;4.53;3.20;;;;;;;11.91;42.86;101130.51;128442;1101;62045;-74
2021/05/03 11:12:21;;;;;;;5.88;4.13;;;;;;;11.70;44.67;101129.22;128408;1101;62327;-74
2021/05/03 11:15:25;;;;;;;5.00;3.50;;;;;;;11.66;45.09;101124.42;128441;1101;62003;-74
2021/05/03 11:18:25;;;;;;;5.03;3.43;;;;;;;11.60;44.93;101118.80;128425;1101;62824;-74
2021/05/03 11:20:57;;;;;;;4.73;3.53;;;;;;;11.57;46.32;101113.81;128202;1102;62358;-74
2021/05/03 11:23:30;;;;;;;7.40;3.77;;;;;;;11.50;43.95;101117.34;128400;1101;62099;-74
2021/05/03 11:25:57;;;;;;;6.00;3.60;;;;;;;11.56;45.23;101100.69;128455;1101;62449;-74
2021/05/03 11:28:35;;;;;;;6.27;4.10;;;;;;;11.67;45.13;101096.83;128341;1101;62104;-73
2021/05/03 11:31:32;;;;;;;5.17;3.13;;;;;;;11.74;43.95;101090.66;128381;1101;62864;-73
2021/05/03 11:34:05;;;;;;;6.67;3.47;;;;;;;11.62;42.51;101110.64;128342;1101;62091;-74
2021/05/03 11:36:37;;;;;;;5.80;3.53;;;;;;;11.58;43.53;101102.20;128427;1101;62257;-74
2021/05/03 11:39:19;;;;;;;9.03;4.30;;;;;;;11.55;43.42;101104.36;128392;1101;62442;-75
2021/05/03 11:46:45;;;;;;;7.03;3.30;;;;;;;11.59;43.48;101100.37;128399;1101;62149;-74
2021/05/03 11:49:14;;;;;;;6.57;4.43;;;;;;;11.72;43.80;101094.50;128431;1101;62163;-74
2021/05/03 11:51:52;;;;;;;4.40;2.80;;;;;;;11.97;43.79;101116.52;128412;1101;62275;-74
2021/05/03 11:54:28;;;;;;;8.27;3.47;;;;;;;12.17;41.80;101099.11;128251;1101;62230;-75
2021/05/03 11:57:04;;;;;;;3.73;2.80;;;;;;;12.16;41.41;101096.64;128441;1101;62043;-74
2021/05/03 11:59:32;;;;;;;6.07;3.70;;;;;;;12.28;40.48;101099.72;128366;1101;62074;-75
2021/05/03 12:02:12;;;;;;;6.50;3.73;;;;;;;12.41;41.69;101082.17;128405;1101;62513;-74